createdAt,value
2023-02-07T00:00:36.381Z,9.279811
2023-02-07T00:01:36.331Z,9.279935
2023-02-07T00:02:36.315Z,9.279579
2023-02-07T00:03:36.295Z,9.279642
2023-02-07T00:04:36.278Z,9.279963
2023-02-07T00:05:36.624Z,9.280113
2023-02-07T00:06:36.265Z,9.280342
2023-02-07T00:07:36.221Z,9.280272
2023-02-07T00:08:36.204Z,9.280173
2023-02-07T00:09:36.179Z,9.280126
2023-02-07T00:10:36.204Z,9.279984
2023-02-07T00:11:36.141Z,9.279807
2023-02-07T00:12:36.126Z,9.279779
2023-02-07T00:13:36.109Z,9.279797
2023-02-07T00:14:36.085Z,9.279858
2023-02-07T00:15:36.463Z,9.279889
2023-02-07T00:16:36.109Z,9.279882
2023-02-07T00:17:36.023Z,9.279753
2023-02-07T00:18:37.012Z,9.279815
2023-02-07T00:19:36.000Z,9.279846
2023-02-07T00:20:36.011Z,9.279880
2023-02-07T00:21:35.953Z,9.279863
2023-02-07T00:22:36.939Z,9.279924
2023-02-07T00:23:35.929Z,9.279989
2023-02-07T00:24:35.904Z,9.279971
2023-02-07T00:25:36.376Z,9.279923
2023-02-07T00:26:35.870Z,9.279902
2023-02-07T00:27:35.865Z,9.279766
2023-02-07T00:28:35.889Z,9.279804
2023-02-07T00:29:35.810Z,9.279863
2023-02-07T00:30:35.882Z,9.279877
2023-02-07T00:31:35.882Z,9.280041
2023-02-07T00:32:35.750Z,9.280115
2023-02-07T00:33:35.736Z,9.280100
2023-02-07T00:34:35.715Z,9.279967
2023-02-07T00:35:35.985Z,9.279978
2023-02-07T00:36:35.680Z,9.279900
2023-02-07T00:37:35.660Z,9.279877
2023-02-07T00:38:35.643Z,9.279866
2023-02-07T00:39:35.615Z,9.279870
2023-02-07T00:40:35.632Z,9.279789
2023-02-07T00:41:35.582Z,9.279758
2023-02-07T00:42:35.562Z,9.279842
2023-02-07T00:43:35.547Z,9.279904
2023-02-07T00:44:35.530Z,9.279926
2023-02-07T00:45:35.688Z,9.279959
2023-02-07T00:46:35.522Z,9.279857
2023-02-07T00:47:36.467Z,9.279987
2023-02-07T00:48:35.450Z,9.280032
2023-02-07T00:49:36.329Z,9.279975
2023-02-07T00:50:35.416Z,9.279945
2023-02-07T00:51:35.427Z,9.279984
2023-02-07T00:52:36.289Z,9.279916
2023-02-07T00:53:35.408Z,9.279894
2023-02-07T00:54:35.337Z,9.279824
2023-02-07T00:55:35.634Z,9.279754
2023-02-07T00:56:35.322Z,9.279853
2023-02-07T00:57:35.288Z,9.279790
2023-02-07T00:58:35.265Z,9.279777
2023-02-07T00:59:35.227Z,9.279752
2023-02-07T01:00:35.221Z,9.279840
2023-02-07T01:01:35.302Z,9.279874
2023-02-07T01:02:35.182Z,9.279892
2023-02-07T01:03:35.158Z,9.279945
2023-02-07T01:04:35.159Z,9.279989
2023-02-07T01:05:35.261Z,9.279918
2023-02-07T01:06:35.133Z,9.279994
2023-02-07T01:07:35.087Z,9.279959
2023-02-07T01:08:35.065Z,9.279894
2023-02-07T01:09:35.051Z,9.279943
2023-02-07T01:10:35.026Z,9.279888
2023-02-07T01:11:35.035Z,9.279902
2023-02-07T01:12:34.993Z,9.279940
2023-02-07T01:13:34.972Z,9.279886
2023-02-07T01:14:34.947Z,9.279844
2023-02-07T01:15:34.941Z,9.279902
2023-02-07T01:16:34.954Z,9.280112
2023-02-07T01:17:34.890Z,9.279825
2023-02-07T01:18:34.889Z,9.279774
2023-02-07T01:19:34.854Z,9.279782
2023-02-07T01:20:34.835Z,9.279948
2023-02-07T01:21:34.841Z,9.279869
2023-02-07T01:22:35.707Z,9.279943
2023-02-07T01:23:34.770Z,9.279893
2023-02-07T01:24:34.749Z,9.279844
2023-02-07T01:25:34.739Z,9.279909
2023-02-07T01:26:34.734Z,9.279923
2023-02-07T01:27:34.688Z,9.279938
2023-02-07T01:28:34.663Z,9.279954
2023-02-07T01:29:34.674Z,9.279878
2023-02-07T01:30:34.672Z,9.279884
2023-02-07T01:31:34.705Z,9.279786
2023-02-07T01:32:34.596Z,9.279875
2023-02-07T01:33:34.609Z,9.279942
2023-02-07T01:34:34.577Z,9.279947
2023-02-07T01:35:34.528Z,9.279937
2023-02-07T01:36:34.541Z,9.280132
2023-02-07T01:37:34.488Z,9.280176
2023-02-07T01:38:34.465Z,9.280027
2023-02-07T01:39:34.445Z,9.280088
2023-02-07T01:40:34.431Z,9.279977
2023-02-07T01:41:34.438Z,9.280005
2023-02-07T01:42:34.386Z,9.279936
2023-02-07T01:43:35.330Z,9.280005
2023-02-07T01:44:34.349Z,9.279978
2023-02-07T01:45:34.332Z,9.279694
2023-02-07T01:46:34.378Z,9.279859
2023-02-07T01:47:34.293Z,9.279933
2023-02-07T01:48:35.197Z,9.279984
2023-02-07T01:49:35.209Z,9.280112
2023-02-07T01:50:34.228Z,9.280079
2023-02-07T01:51:35.240Z,9.280120
2023-02-07T01:52:34.704Z,9.280018
2023-02-07T01:53:34.169Z,9.279981
2023-02-07T01:54:34.694Z,9.279796
2023-02-07T01:55:35.161Z,9.279818
2023-02-07T01:56:34.149Z,9.279948
2023-02-07T01:57:34.104Z,9.279981
2023-02-07T01:58:34.076Z,9.279757
2023-02-07T01:59:34.054Z,9.279980
2023-02-07T02:00:34.036Z,9.279948
2023-02-07T02:01:34.121Z,9.279814
2023-02-07T02:02:35.043Z,9.279801
2023-02-07T02:03:33.977Z,9.279947
2023-02-07T02:04:33.966Z,9.279979
2023-02-07T02:05:34.717Z,9.279854
2023-02-07T02:06:33.945Z,9.280030
2023-02-07T02:07:33.894Z,9.279918
2023-02-07T02:08:33.887Z,9.279865
2023-02-07T02:09:33.860Z,9.279964
2023-02-07T02:10:33.833Z,9.279929
2023-02-07T02:11:33.845Z,9.279876
2023-02-07T02:12:33.796Z,9.279789
2023-02-07T02:13:33.777Z,9.280044
2023-02-07T02:14:33.756Z,9.280054
2023-02-07T02:15:33.768Z,9.280051
2023-02-07T02:16:33.712Z,9.280034
2023-02-07T02:17:33.728Z,9.279865
2023-02-07T02:18:33.681Z,9.279886
2023-02-07T02:19:33.654Z,9.279925
2023-02-07T02:20:33.639Z,9.279748
2023-02-07T02:21:33.614Z,9.279746
2023-02-07T02:22:33.641Z,9.279920
2023-02-07T02:23:33.588Z,9.280025
2023-02-07T02:24:33.554Z,9.280006
2023-02-07T02:25:33.537Z,9.279938
2023-02-07T02:26:33.521Z,9.280002
2023-02-07T02:27:33.530Z,9.279891
2023-02-07T02:28:33.478Z,9.279984
2023-02-07T02:29:33.460Z,9.279982
2023-02-07T02:30:33.459Z,9.280064
2023-02-07T02:31:33.429Z,9.280223
2023-02-07T02:32:33.432Z,9.280230
2023-02-07T02:33:33.388Z,9.280105
2023-02-07T02:34:33.371Z,9.280191
2023-02-07T02:35:33.342Z,9.280037
2023-02-07T02:36:33.321Z,9.280024
2023-02-07T02:37:33.330Z,9.279760
2023-02-07T02:38:33.282Z,9.279640
2023-02-07T02:39:33.265Z,9.279801
2023-02-07T02:40:33.249Z,9.280010
2023-02-07T02:41:33.225Z,9.280169
2023-02-07T02:42:33.233Z,9.280212
2023-02-07T02:43:33.183Z,9.280370
2023-02-07T02:44:33.166Z,9.280269
2023-02-07T02:45:33.139Z,9.280210
2023-02-07T02:46:33.150Z,9.280116
2023-02-07T02:47:33.153Z,9.280116
2023-02-07T02:48:33.085Z,9.280222
2023-02-07T02:49:33.064Z,9.280101
2023-02-07T02:50:33.046Z,9.280084
2023-02-07T02:51:33.025Z,9.279974
2023-02-07T02:52:49.635Z,9.280019
2023-02-07T02:53:35.013Z,9.279960
2023-02-07T02:54:32.964Z,9.279973
2023-02-07T02:55:32.947Z,9.279985
2023-02-07T02:56:32.925Z,9.279992
2023-02-07T02:57:32.935Z,9.279989
2023-02-07T02:58:32.890Z,9.279995
2023-02-07T02:59:32.863Z,9.279875
2023-02-07T03:00:32.840Z,9.279915
2023-02-07T03:01:32.840Z,9.279990
2023-02-07T03:02:32.829Z,9.280002
2023-02-07T03:03:32.782Z,9.280025
2023-02-07T03:04:32.761Z,9.280021
2023-02-07T03:05:32.797Z,9.280068
2023-02-07T03:06:32.723Z,9.280001
2023-02-07T03:07:32.734Z,9.279944
2023-02-07T03:08:32.678Z,9.279890
2023-02-07T03:09:32.664Z,9.279989
2023-02-07T03:10:32.638Z,9.279997
2023-02-07T03:11:32.621Z,9.279985
2023-02-07T03:12:32.628Z,9.280025
2023-02-07T03:13:32.590Z,9.280035
2023-02-07T03:14:32.559Z,9.279942
2023-02-07T03:15:32.552Z,9.280006
2023-02-07T03:16:32.548Z,9.279925
2023-02-07T03:17:32.511Z,9.280078
2023-02-07T03:18:32.488Z,9.280049
2023-02-07T03:19:32.457Z,9.280004
2023-02-07T03:20:32.436Z,9.280035
2023-02-07T03:21:32.446Z,9.279996
2023-02-07T03:22:32.427Z,9.279963
2023-02-07T03:23:32.386Z,9.279988
2023-02-07T03:24:32.356Z,9.280034
2023-02-07T03:25:32.341Z,9.280033
2023-02-07T03:26:32.317Z,9.280005
2023-02-07T03:27:32.816Z,9.280046
2023-02-07T03:28:32.791Z,9.280038
2023-02-07T03:29:32.574Z,9.280012
2023-02-07T03:30:32.385Z,9.280055
2023-02-07T03:31:32.455Z,9.280116
2023-02-07T03:32:32.292Z,9.280005
2023-02-07T03:33:32.253Z,9.279962
2023-02-07T03:34:32.285Z,9.280054
2023-02-07T03:35:32.128Z,9.280029
2023-02-07T03:36:32.383Z,9.280042
2023-02-07T03:37:32.257Z,9.279924
2023-02-07T03:38:32.257Z,9.279955
2023-02-07T03:39:32.063Z,9.280043
2023-02-07T03:40:32.177Z,9.279967
2023-02-07T03:41:32.023Z,9.279988
2023-02-07T03:42:32.023Z,9.279939
2023-02-07T03:43:31.976Z,9.279962
2023-02-07T03:44:31.966Z,9.280029
2023-02-07T03:45:31.947Z,9.280059
2023-02-07T03:46:32.912Z,9.279878
2023-02-07T03:47:31.921Z,9.279930
2023-02-07T03:48:31.880Z,9.279950
2023-02-07T03:49:31.852Z,9.279876
2023-02-07T03:50:31.824Z,9.279879
2023-02-07T03:51:31.816Z,9.279932
2023-02-07T03:52:31.811Z,9.279990
2023-02-07T03:53:31.786Z,9.279981
2023-02-07T03:54:31.779Z,9.279964
2023-02-07T03:55:31.737Z,9.279970
2023-02-07T03:56:31.706Z,9.279897
2023-02-07T03:57:31.716Z,9.279873
2023-02-07T03:58:31.666Z,9.279941
2023-02-07T03:59:31.650Z,9.279924
2023-02-07T04:00:31.627Z,9.279863
2023-02-07T04:01:31.615Z,9.279872
2023-02-07T04:02:31.616Z,9.279999
2023-02-07T04:03:31.569Z,9.279934
2023-02-07T04:04:31.549Z,9.279957
2023-02-07T04:05:31.531Z,9.279823
2023-02-07T04:06:31.513Z,9.279810
2023-02-07T04:07:31.518Z,9.279834
2023-02-07T04:08:31.469Z,9.279892
2023-02-07T04:09:31.447Z,9.280012
2023-02-07T04:10:31.430Z,9.279980
2023-02-07T04:11:31.413Z,9.279943
2023-02-07T04:12:31.418Z,9.279931
2023-02-07T04:13:32.372Z,9.279948
2023-02-07T04:14:31.346Z,9.279958
2023-02-07T04:15:31.340Z,9.279994
2023-02-07T04:16:31.393Z,9.280029
2023-02-07T04:17:31.638Z,9.280018
2023-02-07T04:18:32.275Z,9.279937
2023-02-07T04:19:31.260Z,9.279937
2023-02-07T04:20:31.233Z,9.279968
2023-02-07T04:21:31.216Z,9.279967
2023-02-07T04:22:31.226Z,9.279927
2023-02-07T04:23:31.203Z,9.279994
2023-02-07T04:24:31.158Z,9.280034
2023-02-07T04:25:31.150Z,9.280025
2023-02-07T04:26:31.119Z,9.280054
2023-02-07T04:27:31.100Z,9.280001
2023-02-07T04:28:31.099Z,9.280027
2023-02-07T04:29:31.059Z,9.280046
2023-02-07T04:30:31.093Z,9.279983
2023-02-07T04:31:31.063Z,9.279926
2023-02-07T04:32:30.996Z,9.279963
2023-02-07T04:33:31.013Z,9.279913
2023-02-07T04:34:30.959Z,9.279895
2023-02-07T04:35:30.932Z,9.279949
2023-02-07T04:36:30.915Z,9.279906
2023-02-07T04:37:30.892Z,9.279931
2023-02-07T04:38:30.917Z,9.279844
2023-02-07T04:39:30.849Z,9.279902
2023-02-07T04:40:30.830Z,9.279887
2023-02-07T04:41:30.811Z,9.279980
2023-02-07T04:42:30.791Z,9.279914
2023-02-07T04:43:30.801Z,9.279848
2023-02-07T04:44:30.750Z,9.279936
2023-02-07T04:45:30.774Z,9.280009
2023-02-07T04:46:31.719Z,9.279967
2023-02-07T04:47:30.688Z,9.279948
2023-02-07T04:48:30.700Z,9.279938
2023-02-07T04:49:33.078Z,9.280029
2023-02-07T04:50:30.630Z,9.279890
2023-02-07T04:51:30.613Z,9.279887
2023-02-07T04:52:30.590Z,9.279949
2023-02-07T04:53:30.599Z,9.279845
2023-02-07T04:54:30.557Z,9.279799
2023-02-07T04:55:30.530Z,9.279885
2023-02-07T04:56:30.509Z,9.279967
2023-02-07T04:57:30.498Z,9.279926
2023-02-07T04:58:30.509Z,9.279892
2023-02-07T04:59:30.443Z,9.279862
2023-02-07T05:00:30.422Z,9.279836
2023-02-07T05:01:30.453Z,9.279750
2023-02-07T05:02:30.384Z,9.279955
2023-02-07T05:03:30.405Z,9.280077
2023-02-07T05:04:30.388Z,9.279960
2023-02-07T05:05:30.332Z,9.279866
2023-02-07T05:06:30.309Z,9.279934
2023-02-07T05:07:30.291Z,9.279978
2023-02-07T05:08:30.294Z,9.280035
2023-02-07T05:09:30.242Z,9.279915
2023-02-07T05:10:30.224Z,9.279823
2023-02-07T05:11:30.209Z,9.279902
2023-02-07T05:12:30.188Z,9.279921
2023-02-07T05:13:30.166Z,9.279964
2023-02-07T05:14:30.174Z,9.280029
2023-02-07T05:15:30.137Z,9.279898
2023-02-07T05:16:30.122Z,9.279883
2023-02-07T05:17:30.087Z,9.279993
2023-02-07T05:18:30.094Z,9.279974
2023-02-07T05:19:30.069Z,9.279989
2023-02-07T05:20:30.022Z,9.280016
2023-02-07T05:21:30.000Z,9.279967
2023-02-07T05:22:29.978Z,9.279792
2023-02-07T05:23:29.990Z,9.279882
2023-02-07T05:24:29.937Z,9.279874
2023-02-07T05:25:29.915Z,9.279785
2023-02-07T05:26:29.885Z,9.280005
2023-02-07T05:27:30.889Z,9.279873
2023-02-07T05:28:29.905Z,9.279785
2023-02-07T05:29:29.861Z,9.279919
2023-02-07T05:30:29.978Z,9.279943
2023-02-07T05:31:29.872Z,9.280031
2023-02-07T05:32:29.772Z,9.280023
2023-02-07T05:33:29.787Z,9.280121
2023-02-07T05:34:29.732Z,9.279969
2023-02-07T05:35:29.707Z,9.279960
2023-02-07T05:36:29.692Z,9.279891
2023-02-07T05:37:29.674Z,9.279828
2023-02-07T05:38:29.668Z,9.279879
2023-02-07T05:39:29.622Z,9.279925
2023-02-07T05:40:29.623Z,9.279943
2023-02-07T05:41:29.577Z,9.279989
2023-02-07T05:42:29.558Z,9.279919
2023-02-07T05:43:29.570Z,9.279898
2023-02-07T05:44:29.560Z,9.279901
2023-02-07T05:45:29.495Z,9.279963
2023-02-07T05:46:29.490Z,9.279874
2023-02-07T05:47:29.458Z,9.279943
2023-02-07T05:48:29.460Z,9.279994
2023-02-07T05:49:29.439Z,9.279971
2023-02-07T05:50:29.395Z,9.279869
2023-02-07T05:51:29.372Z,9.279935
2023-02-07T05:52:29.349Z,9.279957
2023-02-07T05:53:29.328Z,9.279856
2023-02-07T05:54:29.335Z,9.279727
2023-02-07T05:55:29.288Z,9.279868
2023-02-07T05:56:29.267Z,9.279899
2023-02-07T05:57:29.273Z,9.279903
2023-02-07T05:58:29.258Z,9.279841
2023-02-07T05:59:29.220Z,9.279890
2023-02-07T06:00:29.191Z,9.279920
2023-02-07T06:01:29.168Z,9.279814
2023-02-07T06:02:29.155Z,9.279814
2023-02-07T06:03:29.233Z,9.279779
2023-02-07T06:04:29.099Z,9.279910
2023-02-07T06:05:29.082Z,9.279999
2023-02-07T06:06:29.061Z,9.279869
2023-02-07T06:07:29.045Z,9.279827
2023-02-07T06:08:29.050Z,9.279922
2023-02-07T06:09:29.003Z,9.279828
2023-02-07T06:10:28.987Z,9.279876
2023-02-07T06:11:28.964Z,9.279845
2023-02-07T06:12:28.940Z,9.279802
2023-02-07T06:13:28.955Z,9.279837
2023-02-07T06:14:28.928Z,9.279832
2023-02-07T06:15:28.921Z,9.279891
2023-02-07T06:16:28.860Z,9.279764
2023-02-07T06:17:28.840Z,9.279716
2023-02-07T06:18:28.818Z,9.279845
2023-02-07T06:19:28.818Z,9.279731
2023-02-07T06:20:29.782Z,9.279552
2023-02-07T06:21:45.127Z,9.279746
2023-02-07T06:22:30.738Z,9.279872
2023-02-07T06:23:28.751Z,9.279838
2023-02-07T06:24:28.700Z,9.279798
2023-02-07T06:25:28.678Z,9.279880
2023-02-07T06:26:28.659Z,9.279892
2023-02-07T06:27:28.636Z,9.279863
2023-02-07T06:28:28.645Z,9.279865
2023-02-07T06:29:28.597Z,9.279899
2023-02-07T06:30:28.661Z,9.279854
2023-02-07T06:31:28.562Z,9.279978
2023-02-07T06:32:28.543Z,9.279969
2023-02-07T06:33:28.547Z,9.279957
2023-02-07T06:34:28.496Z,9.279965
2023-02-07T06:35:28.475Z,9.280011
2023-02-07T06:36:28.451Z,9.279964
2023-02-07T06:37:28.447Z,9.279897
2023-02-07T06:38:28.439Z,9.279861
2023-02-07T06:39:28.402Z,9.279872
2023-02-07T06:40:28.378Z,9.279867
2023-02-07T06:41:28.347Z,9.279823
2023-02-07T06:42:28.342Z,9.279905
2023-02-07T06:43:28.341Z,9.279878
2023-02-07T06:44:28.291Z,9.279889
2023-02-07T06:45:28.277Z,9.279946
2023-02-07T06:46:28.327Z,9.279911
2023-02-07T06:47:28.227Z,9.279827
2023-02-07T06:48:28.233Z,9.279798
2023-02-07T06:49:28.188Z,9.279937
2023-02-07T06:50:28.166Z,9.279949
2023-02-07T06:51:28.144Z,9.279873
2023-02-07T06:52:28.127Z,9.279887
2023-02-07T06:53:28.140Z,9.279850
2023-02-07T06:54:28.103Z,9.279894
2023-02-07T06:55:28.066Z,9.279947
2023-02-07T06:56:28.080Z,9.279912
2023-02-07T06:57:28.027Z,9.279817
2023-02-07T06:58:28.033Z,9.279895
2023-02-07T06:59:27.986Z,9.279854
2023-02-07T07:00:27.965Z,9.279868
2023-02-07T07:01:28.046Z,9.279986
2023-02-07T07:02:27.972Z,9.279844
2023-02-07T07:03:27.935Z,9.279756
2023-02-07T07:04:27.895Z,9.279849
2023-02-07T07:05:27.864Z,9.279799
2023-02-07T07:06:27.849Z,9.279823
2023-02-07T07:07:27.830Z,9.279909
2023-02-07T07:08:27.842Z,9.279846
2023-02-07T07:09:27.791Z,9.279811
2023-02-07T07:10:27.824Z,9.279839
2023-02-07T07:11:27.743Z,9.279907
2023-02-07T07:12:27.716Z,9.279780
2023-02-07T07:13:27.728Z,9.279825
2023-02-07T07:14:27.680Z,9.279828
2023-02-07T07:15:27.656Z,9.279794
2023-02-07T07:16:27.670Z,9.279824
2023-02-07T07:17:27.617Z,9.279864
2023-02-07T07:18:27.629Z,9.279835
2023-02-07T07:19:27.585Z,9.279832
2023-02-07T07:20:27.601Z,9.279826
2023-02-07T07:21:27.556Z,9.279875
2023-02-07T07:22:27.530Z,9.279864
2023-02-07T07:23:27.508Z,9.279755
2023-02-07T07:24:27.497Z,9.279945
2023-02-07T07:25:27.509Z,9.279884
2023-02-07T07:26:36.574Z,9.279757
2023-02-07T07:27:29.434Z,9.279934
2023-02-07T07:28:27.426Z,9.279910
2023-02-07T07:29:27.428Z,9.280006
2023-02-07T07:30:27.382Z,9.280010
2023-02-07T07:31:27.382Z,9.279914
2023-02-07T07:32:33.875Z,9.279853
2023-02-07T07:33:29.341Z,9.279852
2023-02-07T07:34:27.336Z,9.279979
2023-02-07T07:35:27.292Z,9.279950
2023-02-07T07:36:27.272Z,9.279950
2023-02-07T07:37:27.253Z,9.279851
2023-02-07T07:38:27.248Z,9.279803
2023-02-07T07:39:27.245Z,9.279839
2023-02-07T07:40:27.196Z,9.279782
2023-02-07T07:41:27.183Z,9.279856
2023-02-07T07:42:27.167Z,9.279873
2023-02-07T07:43:27.170Z,9.279896
2023-02-07T07:44:27.153Z,9.279863
2023-02-07T07:45:27.101Z,9.280033
2023-02-07T07:46:27.089Z,9.279922
2023-02-07T07:47:28.068Z,9.279866
2023-02-07T07:48:27.069Z,9.279814
2023-02-07T07:49:27.052Z,9.279929
2023-02-07T07:50:26.999Z,9.279996
2023-02-07T07:51:26.973Z,9.279871
2023-02-07T07:52:26.954Z,9.279888
2023-02-07T07:53:26.936Z,9.279821
2023-02-07T07:54:26.935Z,9.279853
2023-02-07T07:55:26.885Z,9.279881
2023-02-07T07:56:26.873Z,9.279865
2023-02-07T07:57:26.843Z,9.279802
2023-02-07T07:58:26.827Z,9.279840
2023-02-07T07:59:27.667Z,9.279821
2023-02-07T08:00:26.896Z,9.279767
2023-02-07T08:01:27.227Z,9.279802
2023-02-07T08:02:26.738Z,9.279798
2023-02-07T08:03:26.752Z,9.279891
2023-02-07T08:04:26.719Z,9.279913
2023-02-07T08:05:26.671Z,9.279943
2023-02-07T08:06:26.651Z,9.279933
2023-02-07T08:07:26.630Z,9.279839
2023-02-07T08:08:26.609Z,9.279884
2023-02-07T08:09:26.616Z,9.279947
2023-02-07T08:10:27.619Z,9.279920
2023-02-07T08:11:26.551Z,9.279837
2023-02-07T08:12:26.532Z,9.279796
2023-02-07T08:13:29.528Z,9.279860
2023-02-07T08:14:27.522Z,9.279732
2023-02-07T08:15:27.498Z,9.279802
2023-02-07T08:16:26.505Z,9.279725
2023-02-07T08:17:26.432Z,9.279742
2023-02-07T08:18:26.414Z,9.279891
2023-02-07T08:19:26.424Z,9.279715
2023-02-07T08:20:26.420Z,9.279750
2023-02-07T08:21:26.360Z,9.279768
2023-02-07T08:22:26.338Z,9.279732
2023-02-07T08:23:26.322Z,9.279683
2023-02-07T08:24:26.332Z,9.279634
2023-02-07T08:25:26.281Z,9.279716
2023-02-07T08:26:26.268Z,9.279730
2023-02-07T08:27:26.253Z,9.279742
2023-02-07T08:28:26.302Z,9.279809
2023-02-07T08:29:26.233Z,9.279845
2023-02-07T08:30:26.269Z,9.279797
2023-02-07T08:31:26.235Z,9.279753
2023-02-07T08:32:26.146Z,9.279802
2023-02-07T08:33:26.130Z,9.279855
2023-02-07T08:34:26.159Z,9.279799
2023-02-07T08:35:26.105Z,9.279743
2023-02-07T08:36:26.088Z,9.279824
2023-02-07T08:37:26.051Z,9.279767
2023-02-07T08:38:26.029Z,9.279836
2023-02-07T08:39:26.081Z,9.279632
2023-02-07T08:40:26.009Z,9.279451
2023-02-07T08:41:25.976Z,9.279608
2023-02-07T08:42:25.962Z,9.279728
2023-02-07T08:43:25.940Z,9.279747
2023-02-07T08:44:25.928Z,9.279765
2023-02-07T08:45:25.997Z,9.279666
2023-02-07T08:46:25.953Z,9.279685
2023-02-07T08:47:25.865Z,9.279598
2023-02-07T08:48:25.873Z,9.279563
2023-02-07T08:49:25.834Z,9.279599
2023-02-07T08:50:25.840Z,9.279409
2023-02-07T08:51:25.797Z,9.279507
2023-02-07T08:52:26.156Z,9.279465
2023-02-07T08:53:25.756Z,9.279603
2023-02-07T08:54:25.738Z,9.279645
2023-02-07T08:55:25.746Z,9.279691
2023-02-07T08:56:25.701Z,9.279651
2023-02-07T08:57:25.707Z,9.279570
2023-02-07T08:58:25.685Z,9.279682
2023-02-07T08:59:25.672Z,9.279568
2023-02-07T09:00:26.173Z,9.279621
2023-02-07T09:01:25.644Z,9.279622
2023-02-07T09:02:25.620Z,9.279610
2023-02-07T09:03:25.593Z,9.279722
2023-02-07T09:04:25.589Z,9.279713
2023-02-07T09:05:25.598Z,9.279580
2023-02-07T09:06:26.208Z,9.279784
2023-02-07T09:07:25.498Z,9.279758
2023-02-07T09:08:25.471Z,9.279682
2023-02-07T09:09:25.464Z,9.279560
2023-02-07T09:10:26.273Z,9.279692
2023-02-07T09:11:25.567Z,9.279788
2023-02-07T09:12:26.395Z,9.279707
2023-02-07T09:13:25.376Z,9.279768
2023-02-07T09:14:25.359Z,9.279806
2023-02-07T09:15:25.367Z,9.279852
2023-02-07T09:16:25.433Z,9.279819
2023-02-07T09:17:25.297Z,9.279703
2023-02-07T09:18:25.277Z,9.279861
2023-02-07T09:19:25.264Z,9.279803
2023-02-07T09:20:25.267Z,9.279754
2023-02-07T09:21:25.216Z,9.279755
2023-02-07T09:22:25.203Z,9.279778
2023-02-07T09:23:25.189Z,9.279792
2023-02-07T09:24:25.166Z,9.279651
2023-02-07T09:25:25.179Z,9.279366
2023-02-07T09:26:25.130Z,9.279735
2023-02-07T09:27:25.110Z,9.279837
2023-02-07T09:28:25.202Z,9.279777
2023-02-07T09:29:25.072Z,9.279607
2023-02-07T09:30:25.268Z,9.279693
2023-02-07T09:31:25.136Z,9.279593
2023-02-07T09:32:25.047Z,9.279809
2023-02-07T09:33:25.013Z,9.279889
2023-02-07T09:34:24.985Z,9.279829
2023-02-07T09:35:24.991Z,9.279810
2023-02-07T09:36:24.950Z,9.279721
2023-02-07T09:37:24.924Z,9.279669
2023-02-07T09:38:24.906Z,9.279707
2023-02-07T09:39:24.899Z,9.279808
2023-02-07T09:40:24.914Z,9.279808
2023-02-07T09:41:24.850Z,9.279651
2023-02-07T09:42:24.834Z,9.279631
2023-02-07T09:43:25.002Z,9.279509
2023-02-07T09:44:24.959Z,9.279666
2023-02-07T09:45:24.936Z,9.279758
2023-02-07T09:46:24.791Z,9.279867
2023-02-07T09:47:24.742Z,9.279788
2023-02-07T09:48:24.727Z,9.279844
2023-02-07T09:49:24.714Z,9.279828
2023-02-07T09:50:24.716Z,9.279835
2023-02-07T09:51:24.666Z,9.280013
2023-02-07T09:52:24.649Z,9.279991
2023-02-07T09:53:24.649Z,9.279897
2023-02-07T09:54:24.618Z,9.279859
2023-02-07T09:55:24.626Z,9.279864
2023-02-07T09:56:24.586Z,9.279725
2023-02-07T09:57:24.566Z,9.279855
2023-02-07T09:58:24.539Z,9.279755
2023-02-07T09:59:24.599Z,9.279737
2023-02-07T10:00:25.531Z,9.279819
2023-02-07T10:01:24.547Z,9.279772
2023-02-07T10:02:24.522Z,9.279800
2023-02-07T10:03:24.493Z,9.279945
2023-02-07T10:04:24.423Z,9.279923
2023-02-07T10:05:24.432Z,9.279855
2023-02-07T10:06:24.384Z,9.279841
2023-02-07T10:07:24.365Z,9.279768
2023-02-07T10:08:28.354Z,9.279832
2023-02-07T10:09:26.335Z,9.279897
2023-02-07T10:10:24.348Z,9.279900
2023-02-07T10:11:24.347Z,9.279879
2023-02-07T10:12:24.276Z,9.279877
2023-02-07T10:13:24.264Z,9.279805
2023-02-07T10:14:24.245Z,9.279902
2023-02-07T10:15:24.250Z,9.279902
2023-02-07T10:16:25.235Z,9.279914
2023-02-07T10:17:31.617Z,9.279941
2023-02-07T10:18:26.167Z,9.279936
2023-02-07T10:19:24.149Z,9.279906
2023-02-07T10:20:24.141Z,9.279937
2023-02-07T10:21:24.140Z,9.279952
2023-02-07T10:22:24.128Z,9.279901
2023-02-07T10:23:24.069Z,9.279920
2023-02-07T10:24:24.086Z,9.279941
2023-02-07T10:25:24.084Z,9.279911
2023-02-07T10:26:24.051Z,9.279934
2023-02-07T10:27:23.999Z,9.279904
2023-02-07T10:28:24.111Z,9.279879
2023-02-07T10:29:23.975Z,9.279907
2023-02-07T10:30:23.975Z,9.279937
2023-02-07T10:31:24.067Z,9.279904
2023-02-07T10:32:23.907Z,9.279862
2023-02-07T10:33:23.879Z,9.279943
2023-02-07T10:34:23.873Z,9.279888
2023-02-07T10:35:23.871Z,9.279905
2023-02-07T10:36:23.817Z,9.279926
2023-02-07T10:37:23.805Z,9.279929
2023-02-07T10:38:24.777Z,9.279887
2023-02-07T10:39:23.752Z,9.279915
2023-02-07T10:40:23.769Z,9.279933
2023-02-07T10:41:23.718Z,9.279885
2023-02-07T10:42:23.695Z,9.279866
2023-02-07T10:43:23.668Z,9.279883
2023-02-07T10:44:23.653Z,9.279947
2023-02-07T10:45:23.664Z,9.279955
2023-02-07T10:46:23.645Z,9.279899
2023-02-07T10:47:23.584Z,9.279814
2023-02-07T10:48:23.560Z,9.279929
2023-02-07T10:49:25.057Z,9.279909
2023-02-07T10:50:30.147Z,9.279939
2023-02-07T10:51:25.505Z,9.279964
2023-02-07T10:52:23.478Z,9.279887
2023-02-07T10:53:23.458Z,9.279878
2023-02-07T10:54:23.437Z,9.279951
2023-02-07T10:55:23.443Z,9.279952
2023-02-07T10:56:23.408Z,9.279922
2023-02-07T10:57:23.377Z,9.279844
2023-02-07T10:58:23.984Z,9.279870
2023-02-07T10:59:24.331Z,9.279940
2023-02-07T11:00:23.356Z,9.280004
2023-02-07T11:01:23.319Z,9.280109
2023-02-07T11:02:23.296Z,9.280035
2023-02-07T11:03:23.253Z,9.280015
2023-02-07T11:04:23.234Z,9.279969
2023-02-07T11:05:23.276Z,9.280007
2023-02-07T11:06:23.195Z,9.279941
2023-02-07T11:07:23.208Z,9.279903
2023-02-07T11:08:23.162Z,9.279963
2023-02-07T11:09:23.145Z,9.280051
2023-02-07T11:10:23.145Z,9.280007
2023-02-07T11:11:23.099Z,9.280074
2023-02-07T11:12:23.093Z,9.279993
2023-02-07T11:13:23.063Z,9.280022
2023-02-07T11:14:23.043Z,9.280071
2023-02-07T11:15:23.052Z,9.280033
2023-02-07T11:16:23.039Z,9.280022
2023-02-07T11:17:22.993Z,9.280064
2023-02-07T11:18:22.978Z,9.280026
2023-02-07T11:19:22.962Z,9.279993
2023-02-07T11:20:22.974Z,9.280062
2023-02-07T11:21:22.921Z,9.280083
2023-02-07T11:22:22.914Z,9.280061
2023-02-07T11:23:22.911Z,9.280089
2023-02-07T11:24:22.874Z,9.280048
2023-02-07T11:25:22.858Z,9.280067
2023-02-07T11:26:22.868Z,9.280130
2023-02-07T11:27:22.828Z,9.280025
2023-02-07T11:28:22.822Z,9.279963
2023-02-07T11:29:22.806Z,9.280015
2023-02-07T11:30:22.771Z,9.280028
2023-02-07T11:31:22.814Z,9.280011
2023-02-07T11:32:23.676Z,9.280051
2023-02-07T11:33:23.725Z,9.280038
2023-02-07T11:34:22.694Z,9.280009
2023-02-07T11:35:22.676Z,9.279973
2023-02-07T11:36:22.691Z,9.280034
2023-02-07T11:37:22.653Z,9.279977
2023-02-07T11:38:22.655Z,9.280019
2023-02-07T11:39:22.611Z,9.280064
2023-02-07T11:40:22.608Z,9.280038
2023-02-07T11:41:22.605Z,9.280068
2023-02-07T11:42:22.563Z,9.280035
2023-02-07T11:43:22.545Z,9.280000
2023-02-07T11:44:22.522Z,9.279986